• Join FlightAware (Why Join?)
  • Login
  • US Flag 
06:55PM EDT


 

Airport Tracker/Info


-or-


 

Live Flight TrackerFlight Track Log ✈ N16112 ✈ 18-Apr-2013 ✈ KAEX - KIAH

Flight Track Log - Related Links

Times and Time Zones

All times are in EDT time to prevent confusion due to time zone crossing. See the N16112 flight status page for this flight to view local times or setup timezone preferences in your user account.

Time Position Orientation Groundspeed Altitude Reporting Facility
EDT Latitude Longitude Course Direction KTS MPH feet Rate Location/Type
07:07PM 31.3444 -92.5936 269° West 177 204 3,000  Level Houston Center
07:08PM 31.2803 -92.5994 184° South 227 261 6,300 2,760 Climbing Houston Center
07:09PM 31.1174 -92.9989 180° South  Level Estimated
07:09PM 31.2011 -92.5958 178° South 239 275 9,400  Level Houston Center
07:10PM 31.0429 -92.9049 133° Southeast  Level FlightAware Approximate
07:10PM 31.1403 -92.6119 193° South 227 261 12,500  Level Houston Center
07:11PM 30.9945 -93.0198 177° South  Level Estimated
07:11PM 31.0772 -92.6258 191° South 226 260 14,400  Level Houston Center
07:12PM 31.0081 -92.6467 194° South 252 290 15,900 720 Climbing Houston Center
07:13PM 30.9450 -92.6908 211° Southwest 276 318 16,000  Climbing Houston Center
07:14PM 30.8631 -92.7703 220° Southwest 320 368 16,000  Level Houston Center
07:15PM 30.7847 -92.8281 212° Southwest 333 383 16,000  Level Houston Center
07:16PM 30.7172 -92.8756 211° Southwest 290 334 16,000  Level Houston Center
07:17PM 30.6569 -92.9183 211° Southwest 259 298 16,000  Level Houston Center
07:18PM 30.5933 -92.9708 215° Southwest 277 319 16,000  Level Houston Center
07:19PM 30.5233 -93.0344 218° Southwest 312 359 16,000  Level Houston Center
07:20PM 30.4328 -93.1153 218° Southwest 338 389 16,000  Level Houston Center
07:21PM 30.3717 -93.2008 230° Southwest 344 396 16,000  Level Houston Center
07:22PM 30.3208 -93.2975 239° Southwest 350 403 16,000  Level Houston Center
07:23PM 30.2775 -93.3817 239° Southwest 311 358 16,000  Level Houston Center
07:24PM 30.2117 -93.4317 213° Southwest 284 327 16,000  Level Houston Center
07:25PM 30.1347 -93.5217 225° Southwest 324 373 16,000  Level Houston Center
07:26PM 30.0789 -93.6011 231° Southwest 348 400 16,000  Level Houston Center
07:27PM 30.0150 -93.6883 230° Southwest 355 409 16,000  Level Houston Center
07:28PM 29.9517 -93.7736 229° Southwest 352 405 16,000  Level Houston Center
07:30PM 29.8781 -93.8769 231° Southwest 348 400 16,000  Level Houston Center
07:31PM 29.8153 -93.9633 230° Southwest 349 402 16,000  Level Houston Center
07:32PM 29.7506 -94.0489 229° Southwest 352 405 16,000 -240 Level Houston Center
07:33PM 29.6881 -94.1353 230° Southwest 351 404 15,600 -780 Descending Houston Center
07:33PM 29.6603 -94.1747 231° Southwest 355 409 15,000 -1,560 Descending Houston Center
07:34PM 29.6231 -94.2225 228° Southwest 356 410 14,000 -1,260 Descending Houston Center
07:34PM 29.5942 -94.3133 250° West 346 398 13,100 -960 Descending Houston Center
07:35PM 29.5972 -94.3211 294° West 346 398 13,000 -1,140 Descending Houston Center
07:35PM 29.6131 -94.4189 281° West 311 358 12,000 -1,320 Descending Houston Center
07:36PM 29.6156 -94.4408 277° West 322 371 11,700 -1,020 Descending Houston Center
07:36PM 29.6244 -94.5139 278° West 284 327 11,000 -1,080 Descending Houston Center
07:37PM 29.6283 -94.5297 286° West 287 330 10,600 -1,080 Descending Houston Center
07:38PM 29.6758 -94.5867 314° West 289 333 9,800 -1,140 Descending Houston Center
07:39PM 29.7392 -94.6531 318° Northwest 257 296 8,500 -1,080 Descending Houston Center
07:40PM 29.7856 -94.7003 319° Northwest 246 283 7,700 -900 Descending Houston Center
07:40PM 29.7892 -94.7025 332° Northwest 251 289 7,500 -720 Descending Houston Center
07:41PM 29.8556 -94.7275 342° North 266 306 7,000 -600 Descending Houston Center
07:41PM 29.8706 -94.7297 353° North 254 292 6,900 60 Descending Houston Center
07:42PM 29.9119 -94.7467 340° North 231 266 7,100  Climbing Houston Center
07:42PM 29.9256 -94.7631 314° West 226 260 6,900  Descending Houston Center
07:43PM 29.9528 -94.7994 311° West 208 239 7,100  Climbing Houston Center
07:43PM 29.9617 -94.8128 308° West 204 235 6,900 -120 Descending Houston Center
07:44PM 29.9914 -94.8525 311° West 194 223 7,000  Climbing Houston Center
07:44PM 29.9964 -94.8606 306° West 196 226 6,900  Descending Houston Center
07:45PM 29.9939 -94.9006 266° West 173 199 7,000  Climbing Houston Center
07:45PM 29.9922 -94.9150 262° West 173 199 6,900 -540 Descending Houston Center
07:46PM 29.9939 -94.9658 272° West 182 209 6,400 -1,020 Descending Houston Center
07:46PM 29.9939 -94.9861 270° West 178 205 5,900 -1,080 Descending Houston Center
07:47PM 29.9914 -95.0286 266° West 178 205 5,200 -1,020 Descending Houston Center
07:47PM 29.9936 -95.0433 280° West 180 207 4,900 -900 Descending Houston Center
07:48PM 29.9925 -95.0864 268° West 168 193 4,300 -900 Descending Houston Center
07:48PM 29.9944 -95.0969 282° West 176 203 4,000 -1,020 Descending Houston Center
07:49PM 29.9936 -95.1419 269° West 176 203 3,300 -1,020 Descending Houston Center
07:49PM 29.9939 -95.1522 272° West 174 200 3,000 -900 Descending Houston Center
07:50PM 29.9939 -95.1925 270° West 167 192 2,500 -900 Descending Houston Center
07:50PM 29.9939 -95.2067 270° West 172 198 2,100 -900 Descending Houston Center